• Join FlightAware (Why Join?)
  • Login
  • US Flag 
11:17PM EST


 

Airport Tracker/Info


-or-


 

Live Flight TrackerFlight Track Log ✈ TRS208 ✈ 14-Jun-2013 ✈ KMSY - KATL

Flight Track Log - Related Links

Times and Time Zones

All times are in EDT time to prevent confusion due to time zone crossing. See the TRS208 flight status page for this flight to view local times or setup timezone preferences in your user account.

Time Position Orientation Groundspeed Altitude Reporting Facility
EDT Latitude Longitude Course Direction KTS MPH feet Rate Location/Type
03:56PM 29.9981 -90.2939 309° West 187 215 1,000  Level Houston Center
03:57PM 30.0289 -90.3383 309° West 216 249 2,400 1,500 Climbing Houston Center
03:58PM 30.0556 -90.3567 329° Northwest 232 267 3,100 1,860 Climbing Houston Center
03:58PM 30.0928 -90.3789 333° Northwest 252 290 4,500 2,040 Climbing Houston Center
03:59PM 30.1153 -90.3950 328° Northwest 239 275 5,300 1,920 Climbing Houston Center
04:00PM 30.1886 -90.3867 North 259 298 7,300 2,460 Climbing Houston Center
04:01PM 30.2447 -90.3336 39° Northeast 261 300 10,400 2,460 Climbing Houston Center
04:02PM 30.2919 -90.2767 46° Northeast 251 289 12,400 1,380 Climbing Houston Center
04:03PM 30.3356 -90.1792 63° Northeast 281 323 13,300 840 Climbing Houston Center
04:04PM 30.3811 -90.0803 62° Northeast 333 383 14,200 960 Climbing Houston Center
04:05PM 30.4286 -89.9717 63° Northeast 367 422 15,300 1,140 Climbing Houston Center
04:06PM 30.4797 -89.8558 63° Northeast 393 452 16,600 1,440 Climbing Houston Center
04:07PM 30.5322 -89.7400 62° Northeast 398 458 18,300 1,500 Climbing Houston Center
04:08PM 30.5881 -89.6236 61° Northeast 406 467 19,700 1,500 Climbing Houston Center
04:09PM 30.6486 -89.5069 59° Northeast 419 482 21,400 1,440 Climbing Houston Center
04:10PM 30.7092 -89.3897 59° Northeast 423 487 22,700 1,320 Climbing Houston Center
04:11PM 30.7831 -89.2456 59° Northeast 432 497 24,200 1,200 Climbing Houston Center
04:12PM 30.8464 -89.1186 60° Northeast 450 518 25,200 1,080 Climbing Houston Center
04:13PM 30.9119 -88.9911 59° Northeast 457 526 26,500 1,080 Climbing Houston Center
04:14PM 30.9717 -88.8725 60° Northeast 460 529 27,500 1,140 Climbing Houston Center
04:15PM 31.0511 -88.7153 59° Northeast 465 535 28,900 1,140 Climbing Houston Center
04:16PM 31.1103 -88.6031 58° Northeast 466 536 29,900 1,200 Climbing Houston Center
04:17PM 31.1886 -88.4475 59° Northeast 462 532 31,500 1,440 Climbing Houston Center
04:18PM 31.2517 -88.3236 59° Northeast 461 531 32,900 720 Climbing Houston Center
04:19PM 31.3167 -88.1936 60° Northeast 457 526 33,000  Climbing Houston Center
04:20PM 31.3811 -88.0642 60° Northeast 460 529 33,000  Level Houston Center
04:21PM 31.4544 -87.9422 55° Northeast 457 526 33,000  Level Houston Center
04:22PM 31.5286 -87.8192 55° Northeast 460 529 33,000  Level Houston Center
04:23PM 31.6156 -87.6747 55° Northeast 455 524 33,000  Level Houston Center
04:24PM 31.6925 -87.5558 53° Northeast 457 526 33,000  Level Atlanta Center
04:25PM 31.7669 -87.4317 55° Northeast 457 526 33,000 -120 Level Atlanta Center
04:26PM 31.8283 -87.3217 57° Northeast 457 526 32,800 -600 Descending Atlanta Center
04:27PM 31.8939 -87.2067 56° Northeast 440 506 31,800 -1,080 Descending Atlanta Center
04:28PM 31.9569 -87.1011 55° Northeast 415 478 30,700 -1,020 Descending Atlanta Center
04:29PM 32.0203 -86.9931 55° Northeast 400 460 29,800 -900 Descending Atlanta Center
04:30PM 32.0833 -86.8872 55° Northeast 394 453 29,000 -420 Descending Atlanta Center
04:31PM 32.1417 -86.7886 55° Northeast 382 440 29,000 -300 Level Atlanta Center
04:32PM 32.2108 -86.6803 53° Northeast 374 430 28,400 -900 Descending Atlanta Center
04:33PM 32.2714 -86.5861 53° Northeast 374 430 27,300 -720 Descending Atlanta Center
04:34PM 32.3256 -86.4894 56° Northeast 368 423 27,000 -480 Descending Atlanta Center
04:35PM 32.3689 -86.3997 60° Northeast 347 399 26,400 -840 Descending Atlanta Center
04:36PM 32.4208 -86.3050 57° Northeast 338 389 25,400 -900 Descending Atlanta Center
04:37PM 32.4789 -86.2106 54° Northeast 338 389 24,600 -900 Descending Atlanta Center
04:38PM 32.5369 -86.1108 55° Northeast 343 395 23,600 -1,020 Descending Atlanta Center
04:39PM 32.5864 -86.0183 58° Northeast 348 400 22,600 -1,020 Descending Atlanta Center
04:40PM 32.6358 -85.9331 55° Northeast 332 382 21,600 -840 Descending Atlanta Center
04:41PM 32.6853 -85.8478 55° Northeast 320 368 21,000 -300 Descending Atlanta Center
04:42PM 32.7322 -85.7672 55° Northeast 306 352 21,000  Level Atlanta Center
04:43PM 32.7794 -85.6819 57° Northeast 301 346 21,000 -120 Level Atlanta Center
04:44PM 32.8222 -85.5936 60° Northeast 301 346 20,800 -1,320 Descending Atlanta Center
04:45PM 32.7858 -85.4967 114° Southeast 270 311 18,400 -2,400 Descending Atlanta Center
04:46PM 32.7975 -85.3956 82° East 297 342 16,000 -1,980 Descending Atlanta Center
04:47PM 32.8753 -85.3347 33° Northeast 290 334 14,500 -1,380 Descending Atlanta Center
04:48PM 32.9553 -85.2742 32° Northeast 302 348 13,300 -1,080 Descending Atlanta Center
04:49PM 33.0269 -85.1983 42° Northeast 325 374 12,400 -660 Descending Atlanta Center
04:50PM 33.0964 -85.1297 40° Northeast 351 404 12,000 -240 Descending Atlanta Center
04:51PM 33.1661 -85.0514 43° Northeast 353 406 12,000 -420 Level Atlanta Center
04:52PM 33.2250 -84.9775 46° Northeast 318 366 11,200 -1,260 Descending Atlanta Center
04:53PM 33.3025 -84.9286 28° Northeast 288 331 9,500 -1,620 Descending Atlanta Center
04:54PM 33.3758 -84.9019 17° North 274 315 8,000 -780 Descending Atlanta Center
04:55PM 33.4492 -84.8728 18° North 268 308 8,000 -600 Level Atlanta Center
04:56PM 33.5181 -84.8486 16° North 268 308 6,900 -1,020 Descending Atlanta Center
04:57PM 33.5894 -84.8219 17° North 262 302 6,000 -480 Descending Atlanta Center
04:58PM 33.6272 -84.7622 53° Northeast 229 264 6,000 -420 Level Atlanta Center
04:59PM 33.6333 -84.7000 83° East 222 255 5,300 -1,200 Descending Atlanta TRACON
05:00PM 33.6333 -84.6167 90° East 223 257 3,700 -1,260 Descending Atlanta TRACON
05:01PM 33.6333 -84.5500 90° East 189 217 2,700 -960 Descending Atlanta TRACON
05:02PM 33.6333 -84.5000 90° East 155 178 1,800 -900 Descending Atlanta TRACON
05:04PM 33.6367 -84.4279 90° East  Level Estimated
05:11PM 33.6367 -84.4279 90° East  Level Estimated
05:12PM 33.6367 -84.4279 90° East  Level Estimated